createdAt,value
2019-04-01T00:01:02.078Z,99333.84
2019-04-01T00:02:36.373Z,99332.62
2019-04-01T00:04:10.827Z,99326.46
2019-04-01T00:05:44.443Z,99331.30
2019-04-01T00:07:19.099Z,99325.19
2019-04-01T00:08:53.343Z,99325.44
2019-04-01T00:10:27.576Z,99326.38
2019-04-01T00:12:01.867Z,99326.09
2019-04-01T00:13:36.676Z,99323.06
2019-04-01T00:15:10.876Z,99327.66
2019-04-01T00:16:45.103Z,99325.22
2019-04-01T00:18:19.329Z,99323.98
2019-04-01T00:19:53.605Z,99323.42
2019-04-01T00:21:27.822Z,99322.56
2019-04-01T00:23:02.384Z,99326.16
2019-04-01T00:24:36.937Z,99322.92
2019-04-01T00:26:11.768Z,99322.70
2019-04-01T00:27:46.002Z,99315.91
2019-04-01T00:29:20.297Z,99318.79
2019-04-01T00:30:54.039Z,99313.11
2019-04-01T00:32:28.092Z,99313.41
2019-04-01T00:34:02.313Z,99316.10
2019-04-01T00:35:37.060Z,99312.50
2019-04-01T00:37:10.736Z,99311.83
2019-04-01T00:38:45.223Z,99315.31
2019-04-01T00:40:19.522Z,99317.23
2019-04-01T00:41:55.382Z,99310.27
2019-04-01T00:43:40.146Z,99318.23
2019-04-01T00:45:16.615Z,99315.26
2019-04-01T00:46:50.240Z,99311.20
2019-04-01T00:48:24.539Z,99311.52
2019-04-01T00:49:58.867Z,99309.34
2019-04-01T00:51:34.057Z,99316.34
2019-04-01T00:53:08.272Z,99321.70
2019-04-01T00:54:41.892Z,99320.23
2019-04-01T00:56:15.592Z,99324.38
2019-04-01T00:57:49.546Z,99322.42
2019-04-01T00:59:23.824Z,99325.31
2019-04-01T01:00:57.516Z,99330.02
2019-04-01T01:02:31.854Z,99326.14
2019-04-01T01:04:05.867Z,99324.56
2019-04-01T01:05:39.511Z,99327.75
2019-04-01T01:07:13.722Z,99328.72
2019-04-01T01:08:47.377Z,99321.05
2019-04-01T01:10:21.301Z,99330.12
2019-04-01T01:11:55.001Z,99319.81
2019-04-01T01:13:28.633Z,99326.78
2019-04-01T01:15:02.384Z,99325.77
2019-04-01T01:16:37.176Z,99330.44
2019-04-01T01:18:10.801Z,99322.55
2019-04-01T01:19:45.031Z,99322.93
2019-04-01T01:21:18.697Z,99322.56
2019-04-01T01:22:53.429Z,99326.02
2019-04-01T01:24:27.065Z,99325.86
2019-04-01T01:26:00.772Z,99324.91
2019-04-01T01:27:34.523Z,99321.81
2019-04-01T01:29:08.502Z,99320.84
2019-04-01T01:30:42.105Z,99323.37
2019-04-01T01:32:15.727Z,99319.75
2019-04-01T01:33:50.061Z,99324.64
2019-04-01T01:35:24.310Z,99327.91
2019-04-01T01:36:58.061Z,99329.19
2019-04-01T01:38:32.193Z,99326.84
2019-04-01T01:40:06.306Z,99324.58
2019-04-01T01:41:40.346Z,99325.80
2019-04-01T01:43:14.096Z,99320.73
2019-04-01T01:44:48.384Z,99327.72
2019-04-01T01:46:22.030Z,99330.00
2019-04-01T01:47:56.649Z,99332.52
2019-04-01T01:49:30.380Z,99329.66
2019-04-01T01:51:04.123Z,99337.91
2019-04-01T01:52:38.372Z,99334.91
2019-04-01T01:54:13.187Z,99335.15
2019-04-01T01:55:47.433Z,99339.45
2019-04-01T01:57:21.809Z,99338.48
2019-04-01T01:58:55.497Z,99336.55
2019-04-01T02:00:30.031Z,99341.88
2019-04-01T02:02:04.401Z,99345.59
2019-04-01T02:03:38.061Z,99346.23
2019-04-01T02:05:11.698Z,99349.48
2019-04-01T02:06:45.435Z,99351.53
2019-04-01T02:08:19.199Z,99347.29
2019-04-01T02:09:52.839Z,99351.41
2019-04-01T02:11:26.473Z,99350.25
2019-04-01T02:13:01.230Z,99352.05
2019-04-01T02:14:34.905Z,99357.36
2019-04-01T02:16:09.200Z,99356.00
2019-04-01T02:17:43.467Z,99354.70
2019-04-01T02:19:18.147Z,99358.40
2019-04-01T02:20:52.370Z,99353.33
2019-04-01T02:22:26.046Z,99356.88
2019-04-01T02:24:00.308Z,99348.81
2019-04-01T02:25:34.720Z,99358.40
2019-04-01T02:27:08.480Z,99354.33
2019-04-01T02:28:42.220Z,99354.59
2019-04-01T02:30:16.517Z,99365.62
2019-04-01T02:31:50.497Z,99359.48
2019-04-01T02:33:24.738Z,99359.91
2019-04-01T02:34:59.020Z,99361.49
2019-04-01T02:36:33.289Z,99363.58
2019-04-01T02:38:07.342Z,99361.53
2019-04-01T02:39:41.026Z,99366.95
2019-04-01T02:41:15.173Z,99362.98
2019-04-01T02:42:49.401Z,99368.64
2019-04-01T02:44:24.085Z,99366.23
2019-04-01T02:45:57.739Z,99369.25
2019-04-01T02:47:31.462Z,99363.27
2019-04-01T02:49:05.103Z,99371.25
2019-04-01T02:50:39.258Z,99370.05
2019-04-01T02:52:12.948Z,99367.50
2019-04-01T02:53:46.668Z,99369.52
2019-04-01T02:55:20.298Z,99371.86
2019-04-01T02:56:54.802Z,99300.37
2019-04-01T02:58:31.188Z,99373.70
2019-04-01T03:00:08.189Z,99376.34
2019-04-01T03:01:42.406Z,99376.89
2019-04-01T03:03:16.938Z,99378.38
2019-04-01T03:04:51.627Z,99373.59
2019-04-01T03:06:25.264Z,99378.18
2019-04-01T03:07:59.491Z,99379.81
2019-04-01T03:09:33.658Z,99378.78
2019-04-01T03:11:10.463Z,99379.81
2019-04-01T03:12:42.699Z,99387.33
2019-04-01T03:14:16.449Z,99393.60
2019-04-01T03:15:50.379Z,99397.73
2019-04-01T03:17:24.683Z,99392.66
2019-04-01T03:18:58.379Z,99392.66
2019-04-01T03:20:32.573Z,99395.05
2019-04-01T03:22:07.134Z,99401.89
2019-04-01T03:23:41.354Z,99400.40
2019-04-01T03:25:15.799Z,99400.80
2019-04-01T03:26:51.515Z,99401.62
2019-04-01T03:28:25.986Z,99398.71
2019-04-01T03:29:59.683Z,99410.23
2019-04-01T03:31:34.001Z,99405.11
2019-04-01T03:33:07.656Z,99406.37
2019-04-01T03:34:41.715Z,99411.12
2019-04-01T03:36:15.446Z,99407.27
2019-04-01T03:37:49.197Z,99412.42
2019-04-01T03:39:22.821Z,99411.06
2019-04-01T03:40:57.545Z,99405.91
2019-04-01T03:42:31.758Z,99405.91
2019-04-01T03:44:06.053Z,99413.20
2019-04-01T03:45:40.360Z,99410.06
2019-04-01T03:47:14.588Z,99411.27
2019-04-01T03:48:48.855Z,99398.08
2019-04-01T03:50:23.155Z,99409.20
2019-04-01T03:51:57.431Z,99417.88
2019-04-01T03:53:31.498Z,99414.52
2019-04-01T03:55:06.344Z,99416.97
2019-04-01T03:56:40.624Z,99418.42
2019-04-01T03:58:14.316Z,99421.11
2019-04-01T03:59:48.533Z,99420.81
2019-04-01T04:01:22.155Z,99421.89
2019-04-01T04:02:56.403Z,99427.03
2019-04-01T04:04:30.711Z,99422.48
2019-04-01T04:06:05.473Z,99431.48
2019-04-01T04:07:39.206Z,99437.42
2019-04-01T04:09:12.934Z,99431.97
2019-04-01T04:10:46.601Z,99438.59
2019-04-01T04:12:21.119Z,99439.75
2019-04-01T04:13:55.333Z,99434.72
2019-04-01T04:15:29.024Z,99436.70
2019-04-01T04:17:02.754Z,99438.09
2019-04-01T04:18:36.701Z,99434.11
2019-04-01T04:20:10.343Z,99436.62
2019-04-01T04:21:43.971Z,99435.09
2019-04-01T04:23:17.711Z,99430.63
2019-04-01T04:24:51.535Z,99427.55
2019-04-01T04:26:25.204Z,99435.54
2019-04-01T04:27:58.907Z,99442.87
2019-04-01T04:29:33.121Z,99448.30
2019-04-01T04:31:06.971Z,99445.14
2019-04-01T04:32:40.668Z,99449.27
2019-04-01T04:34:14.320Z,99453.38
2019-04-01T04:35:47.948Z,99451.16
2019-04-01T04:37:21.864Z,99455.06
2019-04-01T04:38:55.567Z,99456.39
2019-04-01T04:40:29.788Z,99455.48
2019-04-01T04:42:03.430Z,99453.34
2019-04-01T04:43:37.670Z,99464.20
2019-04-01T04:45:12.162Z,99459.02
2019-04-01T04:46:45.884Z,99460.87
2019-04-01T04:48:19.623Z,99459.41
2019-04-01T04:49:53.901Z,99461.52
2019-04-01T04:51:27.615Z,99461.14
2019-04-01T04:53:01.899Z,99466.78
2019-04-01T04:54:35.602Z,99462.44
2019-04-01T04:56:09.340Z,99461.17
2019-04-01T04:57:42.988Z,99460.20
2019-04-01T04:59:17.238Z,99471.53
2019-04-01T05:00:51.292Z,99472.37
2019-04-01T05:02:25.208Z,99480.30
2019-04-01T05:03:58.917Z,99469.57
2019-04-01T05:05:32.649Z,99473.01
2019-04-01T05:07:06.358Z,99479.00
2019-04-01T05:08:40.495Z,99482.22
2019-04-01T05:10:14.417Z,99482.97
2019-04-01T05:11:49.891Z,99485.20
2019-04-01T05:13:23.525Z,99480.60
2019-04-01T05:14:57.664Z,99483.24
2019-04-01T05:16:32.636Z,99489.00
2019-04-01T05:18:06.930Z,99482.14
2019-04-01T05:19:41.203Z,99487.81
2019-04-01T05:21:17.453Z,99485.73
2019-04-01T05:22:52.075Z,99476.43
2019-04-01T05:24:28.184Z,99480.91
2019-04-01T05:26:03.204Z,99483.33
2019-04-01T05:27:38.675Z,99478.15
2019-04-01T05:29:15.181Z,99487.42
2019-04-01T05:30:51.042Z,99481.23
2019-04-01T05:32:27.162Z,99480.98
2019-04-01T05:34:02.409Z,99486.67
2019-04-01T05:35:36.721Z,99485.84
2019-04-01T05:37:11.012Z,99483.74
2019-04-01T05:38:45.243Z,99481.59
2019-04-01T05:40:19.896Z,99481.66
2019-04-01T05:41:54.122Z,99482.20
2019-04-01T05:43:29.257Z,99487.20
2019-04-01T05:45:04.457Z,99475.16
2019-04-01T05:46:39.236Z,99480.37
2019-04-01T05:48:14.537Z,99478.91
2019-04-01T05:49:48.750Z,99477.34
2019-04-01T05:51:22.967Z,99475.66
2019-04-01T05:52:57.594Z,99484.20
2019-04-01T05:54:31.815Z,99486.06
2019-04-01T05:56:07.147Z,99484.55
2019-04-01T05:57:41.385Z,99490.34
2019-04-01T05:59:16.681Z,99491.45
2019-04-01T06:00:55.273Z,99490.79
2019-04-01T06:02:29.625Z,99489.87
2019-04-01T06:04:04.789Z,99488.80
2019-04-01T06:05:39.309Z,99490.23
2019-04-01T06:07:13.610Z,99483.09
2019-04-01T06:08:47.969Z,99488.58
2019-04-01T06:10:22.251Z,99483.09
2019-04-01T06:11:56.677Z,99449.23
2019-04-01T06:13:30.921Z,99483.34
2019-04-01T06:15:08.243Z,99484.08
2019-04-01T06:16:42.519Z,99483.97
2019-04-01T06:18:18.154Z,99489.45
2019-04-01T06:19:52.388Z,99489.14
2019-04-01T06:21:26.760Z,99484.49
2019-04-01T06:23:00.944Z,99490.89
2019-04-01T06:24:35.474Z,99487.59
2019-04-01T06:26:10.111Z,99484.57
2019-04-01T06:27:44.410Z,99486.66
2019-04-01T06:29:18.978Z,99482.34
2019-04-01T06:30:53.783Z,99484.61
2019-04-01T06:32:28.092Z,99488.83
2019-04-01T06:34:02.880Z,99484.17
2019-04-01T06:35:37.212Z,99485.86
2019-04-01T06:37:11.612Z,99481.52
2019-04-01T06:38:45.889Z,99484.83
2019-04-01T06:40:20.182Z,99483.45
2019-04-01T06:41:54.515Z,99485.22
2019-04-01T06:43:29.056Z,99483.20
2019-04-01T06:45:04.258Z,99483.41
2019-04-01T06:46:38.562Z,99482.91
2019-04-01T06:48:12.932Z,99477.78
2019-04-01T06:49:47.539Z,99481.75
2019-04-01T06:51:21.886Z,99481.73
2019-04-01T06:52:56.093Z,99488.08
2019-04-01T06:54:30.425Z,99481.25
2019-04-01T06:56:05.546Z,99486.62
2019-04-01T06:57:39.846Z,99483.89
2019-04-01T06:59:14.179Z,99484.33
2019-04-01T07:00:48.409Z,99486.09
2019-04-01T07:02:22.829Z,99483.75
2019-04-01T07:03:57.069Z,99485.31
2019-04-01T07:05:31.385Z,99475.61
2019-04-01T07:07:18.336Z,99476.02
2019-04-01T07:08:41.938Z,99475.81
2019-04-01T07:10:16.250Z,99481.80
2019-04-01T07:11:51.948Z,99471.14
2019-04-01T07:13:26.331Z,99468.70
2019-04-01T07:15:00.793Z,99463.86
2019-04-01T07:16:35.643Z,99475.52
2019-04-01T07:18:09.878Z,99473.78
2019-04-01T07:19:45.865Z,99478.94
2019-04-01T07:21:21.951Z,99475.13
2019-04-01T07:22:56.230Z,99473.86
2019-04-01T07:24:30.571Z,99471.98
2019-04-01T07:26:04.894Z,99480.87
2019-04-01T07:27:39.428Z,99480.23
2019-04-01T07:29:13.723Z,99481.55
2019-04-01T07:30:48.039Z,99484.00
2019-04-01T07:32:22.242Z,99485.81
2019-04-01T07:33:56.758Z,99481.61
2019-04-01T07:35:31.345Z,99481.55
2019-04-01T07:37:05.668Z,99479.08
2019-04-01T07:38:40.978Z,99477.31
2019-04-01T07:40:15.426Z,99475.87
2019-04-01T07:41:49.640Z,99472.86
2019-04-01T07:43:24.016Z,99471.20
2019-04-01T07:44:58.857Z,99470.70
2019-04-01T07:46:33.682Z,99468.39
2019-04-01T07:48:07.913Z,99468.63
2019-04-01T07:49:42.278Z,99468.13
2019-04-01T07:51:16.813Z,99463.47
2019-04-01T07:52:51.446Z,99470.06
2019-04-01T07:54:25.679Z,99462.35
2019-04-01T07:56:02.571Z,99457.10
2019-04-01T07:57:35.882Z,99460.78
2019-04-01T07:59:10.458Z,99459.01
2019-04-01T08:00:45.135Z,99459.84
2019-04-01T08:02:19.496Z,99459.34
2019-04-01T08:03:53.830Z,99453.98
2019-04-01T08:05:28.823Z,99450.08
2019-04-01T08:07:03.212Z,99455.02
2019-04-01T08:08:37.520Z,99453.91
2019-04-01T08:10:11.894Z,99451.88
2019-04-01T08:11:49.890Z,99449.05
2019-04-01T08:13:22.500Z,99444.03
2019-04-01T08:14:56.936Z,99440.70
2019-04-01T08:16:31.204Z,99437.14
2019-04-01T08:18:05.532Z,99436.39
2019-04-01T08:19:40.226Z,99432.59
2019-04-01T08:21:14.468Z,99429.03
2019-04-01T08:22:48.785Z,99430.91
2019-04-01T08:24:23.415Z,99430.67
2019-04-01T08:25:57.763Z,99424.88
2019-04-01T08:27:31.962Z,99425.92
2019-04-01T08:29:06.234Z,99426.53
2019-04-01T08:30:40.942Z,99426.91
2019-04-01T08:32:15.174Z,99424.58
2019-04-01T08:33:50.370Z,99424.37
2019-04-01T08:35:24.779Z,99422.19
2019-04-01T08:36:59.526Z,99416.20
2019-04-01T08:38:33.741Z,99410.07
2019-04-01T08:40:08.579Z,99406.19
2019-04-01T08:41:42.794Z,99406.77
2019-04-01T08:43:17.217Z,99391.36
2019-04-01T08:44:51.532Z,99393.20
2019-04-01T08:46:25.760Z,99394.76
2019-04-01T08:48:00.053Z,99394.91
2019-04-01T08:49:34.773Z,99392.72
2019-04-01T08:51:09.156Z,99388.30
2019-04-01T08:52:44.352Z,99384.11
2019-04-01T08:54:18.584Z,99377.25
2019-04-01T08:56:00.542Z,99383.31
2019-04-01T08:57:28.869Z,99384.13
2019-04-01T08:59:03.174Z,99378.94
2019-04-01T09:00:37.464Z,99378.37
2019-04-01T09:02:18.001Z,99380.20
2019-04-01T09:03:48.064Z,99380.86
2019-04-01T09:05:22.312Z,99382.80
2019-04-01T09:06:56.567Z,99381.63
2019-04-01T09:08:31.688Z,99376.42
2019-04-01T09:10:07.514Z,99369.02
2019-04-01T09:11:42.428Z,99372.14
2019-04-01T09:13:16.751Z,99368.02
2019-04-01T09:14:52.562Z,99369.65
2019-04-01T09:16:26.851Z,99375.08
2019-04-01T09:18:01.087Z,99370.41
2019-04-01T09:19:35.382Z,99363.05
2019-04-01T09:21:10.159Z,99359.38
2019-04-01T09:22:44.446Z,99364.41
2019-04-01T09:24:18.666Z,99370.92
2019-04-01T09:25:52.919Z,99364.91
2019-04-01T09:27:27.711Z,99370.34
2019-04-01T09:29:01.973Z,99362.51
2019-04-01T09:30:36.268Z,99361.77
2019-04-01T09:32:10.541Z,99370.20
2019-04-01T09:33:45.770Z,99364.31
2019-04-01T09:35:19.943Z,99359.28
2019-04-01T09:36:54.219Z,99366.05
2019-04-01T09:38:28.482Z,99358.95
2019-04-01T09:40:03.426Z,99354.46
2019-04-01T09:41:37.706Z,99350.59
2019-04-01T09:43:14.117Z,99353.98
2019-04-01T09:44:47.906Z,99356.67
2019-04-01T09:46:22.510Z,99354.20
2019-04-01T09:47:56.754Z,99357.91
2019-04-01T09:49:31.038Z,99350.75
2019-04-01T09:51:05.217Z,99345.95
2019-04-01T09:52:39.870Z,99340.09
2019-04-01T09:54:14.073Z,99346.26
2019-04-01T09:55:49.669Z,99352.44
2019-04-01T09:57:23.897Z,99338.09
2019-04-01T09:58:58.434Z,99347.94
2019-04-01T10:00:32.647Z,99345.64
2019-04-01T10:02:06.974Z,99347.52
2019-04-01T10:03:41.207Z,99338.41
2019-04-01T10:05:16.277Z,99336.02
2019-04-01T10:06:50.530Z,99334.41
2019-04-01T10:08:25.353Z,99338.97
2019-04-01T10:09:59.643Z,99338.25
2019-04-01T10:11:34.149Z,99339.76
2019-04-01T10:13:08.433Z,99338.27
2019-04-01T10:14:42.936Z,99345.24
2019-04-01T10:16:17.146Z,99348.59
2019-04-01T10:17:51.606Z,99348.13
2019-04-01T10:19:25.870Z,99344.69
2019-04-01T10:21:00.138Z,99343.88
2019-04-01T10:22:34.334Z,99343.45
2019-04-01T10:24:08.950Z,99339.59
2019-04-01T10:25:43.215Z,99336.11
2019-04-01T10:27:17.495Z,99338.09
2019-04-01T10:28:51.734Z,99343.95
2019-04-01T10:30:26.379Z,99341.14
2019-04-01T10:32:00.574Z,99342.45
2019-04-01T10:33:36.384Z,99342.95
2019-04-01T10:35:12.132Z,99334.86
2019-04-01T10:36:46.719Z,99334.34
2019-04-01T10:38:20.910Z,99344.22
2019-04-01T10:39:55.156Z,99344.20
2019-04-01T10:41:29.442Z,99332.52
2019-04-01T10:43:03.935Z,99334.93
2019-04-01T10:44:38.142Z,99326.28
2019-04-01T10:46:12.643Z,99324.36
2019-04-01T10:47:47.145Z,99321.97
2019-04-01T10:49:21.668Z,99318.77
2019-04-01T10:50:55.828Z,99324.63
2019-04-01T10:52:30.087Z,99322.53
2019-04-01T10:54:04.403Z,99330.41
2019-04-01T10:55:38.719Z,99331.82
2019-04-01T10:57:13.044Z,99336.91
2019-04-01T10:58:47.367Z,99323.41
2019-04-01T11:00:21.567Z,99328.25
2019-04-01T11:01:55.984Z,99323.45
2019-04-01T11:03:30.198Z,99325.38
2019-04-01T11:05:07.146Z,99319.39
2019-04-01T11:06:41.344Z,99314.34
2019-04-01T11:08:15.791Z,99309.26
2019-04-01T11:09:50.057Z,99312.40
2019-04-01T11:11:24.283Z,99309.67
2019-04-01T11:12:58.506Z,99304.12
2019-04-01T11:14:33.053Z,99307.37
2019-04-01T11:16:07.334Z,99308.08
2019-04-01T11:17:41.554Z,99309.84
2019-04-01T11:19:15.829Z,99310.19
2019-04-01T11:20:50.119Z,99313.69
2019-04-01T11:22:24.356Z,99309.36
2019-04-01T11:23:58.574Z,99300.91
2019-04-01T11:25:33.189Z,99297.66
2019-04-01T11:27:07.571Z,99296.00
2019-04-01T11:28:41.783Z,99293.31
2019-04-01T11:30:16.574Z,99290.84
2019-04-01T11:31:50.986Z,99288.77
2019-04-01T11:33:25.497Z,99288.42
2019-04-01T11:34:59.824Z,99274.94
2019-04-01T11:36:34.052Z,99288.27
2019-04-01T11:38:08.301Z,99287.81
2019-04-01T11:39:42.758Z,99279.95
2019-04-01T11:41:17.357Z,99283.60
2019-04-01T11:42:52.925Z,99286.29
2019-04-01T11:44:27.588Z,99278.95
2019-04-01T11:46:02.662Z,99283.44
2019-04-01T11:47:36.941Z,99277.52
2019-04-01T11:49:11.211Z,99279.48
2019-04-01T11:50:47.782Z,99282.16
2019-04-01T11:52:21.734Z,99282.83
2019-04-01T11:53:56.006Z,99276.89
2019-04-01T11:55:30.214Z,99275.82
2019-04-01T11:57:04.448Z,99286.22
2019-04-01T11:58:38.873Z,99278.95
2019-04-01T12:00:14.929Z,99268.09
2019-04-01T12:01:49.220Z,99270.34
2019-04-01T12:03:23.899Z,99269.62
2019-04-01T12:04:58.271Z,99275.03
2019-04-01T12:06:32.489Z,99259.34
2019-04-01T12:08:06.714Z,99269.43
2019-04-01T12:09:41.006Z,99269.45
2019-04-01T12:11:15.425Z,99262.56
2019-04-01T12:12:49.799Z,99261.64
2019-04-01T12:14:24.618Z,99256.05
2019-04-01T12:15:58.946Z,99256.75
2019-04-01T12:17:33.468Z,99263.22
2019-04-01T12:19:07.719Z,99251.49
2019-04-01T12:20:41.939Z,99257.39
2019-04-01T12:22:19.687Z,99252.78
2019-04-01T12:23:52.360Z,99252.41
2019-04-01T12:25:26.616Z,99258.02
2019-04-01T12:27:00.838Z,99252.18
2019-04-01T12:28:36.711Z,99249.53
2019-04-01T12:30:11.904Z,99253.92
2019-04-01T12:31:46.200Z,99248.73
2019-04-01T12:33:20.465Z,99244.84
2019-04-01T12:34:54.664Z,99240.81
2019-04-01T12:36:29.079Z,99237.06
2019-04-01T12:38:03.456Z,99247.01
2019-04-01T12:39:37.674Z,99240.92
2019-04-01T12:41:12.030Z,99243.62
2019-04-01T12:42:46.934Z,99242.98
2019-04-01T12:44:22.356Z,99239.33
2019-04-01T12:45:56.677Z,99236.03
2019-04-01T12:47:31.017Z,99234.11
2019-04-01T12:49:05.377Z,99239.97
2019-04-01T12:50:39.622Z,99237.41
2019-04-01T12:52:13.912Z,99237.63
2019-04-01T12:53:48.237Z,99230.48
2019-04-01T12:55:22.769Z,99235.16
2019-04-01T12:56:57.099Z,99233.04
2019-04-01T12:58:31.398Z,99233.88
2019-04-01T13:00:09.582Z,99234.38
2019-04-01T13:01:44.055Z,99227.21
2019-04-01T13:03:18.704Z,99234.53
2019-04-01T13:04:54.271Z,99238.69
2019-04-01T13:06:28.550Z,99225.00
2019-04-01T13:08:03.205Z,99229.94
2019-04-01T13:09:37.502Z,99236.52
2019-04-01T13:11:11.727Z,99223.94
2019-04-01T13:12:46.473Z,99220.93
2019-04-01T13:14:21.370Z,99228.48
2019-04-01T13:15:55.603Z,99223.94
2019-04-01T13:17:29.850Z,99228.98
2019-04-01T13:19:04.112Z,99229.83
2019-04-01T13:20:38.617Z,99225.56
2019-04-01T13:22:12.917Z,99228.12
2019-04-01T13:23:47.137Z,99227.84
2019-04-01T13:25:21.338Z,99229.31
2019-04-01T13:26:55.735Z,99234.38
2019-04-01T13:28:30.388Z,99226.88
2019-04-01T13:30:06.408Z,99227.33
2019-04-01T13:31:40.622Z,99231.67
2019-04-01T13:33:15.146Z,99228.41
2019-04-01T13:34:49.491Z,99219.33
2019-04-01T13:36:23.713Z,99231.30
2019-04-01T13:37:58.055Z,99223.16
2019-04-01T13:39:32.803Z,99220.99
2019-04-01T13:41:06.990Z,99216.50
2019-04-01T13:42:41.281Z,99223.08
2019-04-01T13:44:15.584Z,99216.26
2019-04-01T13:45:50.309Z,99220.70
2019-04-01T13:47:24.830Z,99221.72
2019-04-01T13:49:03.993Z,99217.59
2019-04-01T13:50:35.022Z,99220.38
2019-04-01T13:52:11.931Z,99219.80
2019-04-01T13:53:46.185Z,99223.57
2019-04-01T13:55:20.456Z,99220.38
2019-04-01T13:56:56.042Z,99215.22
2019-04-01T13:58:31.697Z,99222.20
2019-04-01T14:00:07.702Z,99215.72
2019-04-01T14:01:41.990Z,99214.02
2019-04-01T14:03:17.213Z,99223.50
2019-04-01T14:04:52.017Z,99223.00
2019-04-01T14:06:26.293Z,99218.09
2019-04-01T14:08:00.478Z,99224.48
2019-04-01T14:09:34.697Z,99222.72
2019-04-01T14:11:09.176Z,99222.72
2019-04-01T14:12:43.453Z,99219.91
2019-04-01T14:14:17.738Z,99221.64
2019-04-01T14:15:51.947Z,99223.05
2019-04-01T14:17:28.501Z,99220.05
2019-04-01T14:19:02.743Z,99219.95
2019-04-01T14:20:36.970Z,99223.54
2019-04-01T14:22:11.272Z,99223.83
2019-04-01T14:23:46.129Z,99215.86
2019-04-01T14:25:21.282Z,99217.03
2019-04-01T14:26:56.987Z,99222.83
2019-04-01T14:28:31.203Z,99224.86
2019-04-01T14:30:07.638Z,99226.42
2019-04-01T14:31:41.849Z,99226.06
2019-04-01T14:33:16.205Z,99227.73
2019-04-01T14:34:50.660Z,99225.45
2019-04-01T14:36:25.395Z,99223.02
2019-04-01T14:37:59.622Z,99223.97
2019-04-01T14:39:34.929Z,99224.63
2019-04-01T14:41:09.315Z,99222.29
2019-04-01T14:42:46.353Z,99217.85
2019-04-01T14:44:19.632Z,99220.45
2019-04-01T14:45:53.945Z,99222.13
2019-04-01T14:47:28.264Z,99221.52
2019-04-01T14:49:04.122Z,99214.12
2019-04-01T14:50:38.353Z,99219.08
2019-04-01T14:52:12.617Z,99223.56
2019-04-01T14:53:46.910Z,99219.77
2019-04-01T14:55:21.438Z,99219.41
2019-04-01T14:56:56.268Z,99222.00
2019-04-01T14:58:31.267Z,99221.16
2019-04-01T15:00:08.442Z,99216.65
2019-04-01T15:01:42.788Z,99220.11
2019-04-01T15:03:17.040Z,99221.91
2019-04-01T15:04:53.423Z,99216.53
2019-04-01T15:06:27.657Z,99208.37
2019-04-01T15:08:02.051Z,99214.14
2019-04-01T15:09:36.324Z,99215.05
2019-04-01T15:11:12.171Z,99210.22
2019-04-01T15:12:46.603Z,99207.92
2019-04-01T15:14:20.951Z,99207.16
2019-04-01T15:15:55.222Z,99203.88
2019-04-01T15:17:29.492Z,99215.61
2019-04-01T15:19:03.706Z,99208.59
2019-04-01T15:20:38.397Z,99213.12
2019-04-01T15:22:12.678Z,99210.88
2019-04-01T15:23:47.018Z,99206.59
2019-04-01T15:25:21.265Z,99208.58
2019-04-01T15:26:55.847Z,99214.78
2019-04-01T15:28:30.598Z,99209.75
2019-04-01T15:30:08.433Z,99211.28
2019-04-01T15:31:42.669Z,99213.44
2019-04-01T15:33:32.005Z,99211.89
2019-04-01T15:35:07.861Z,99216.11
2019-04-01T15:36:42.088Z,99215.09
2019-04-01T15:38:16.370Z,99223.27
2019-04-01T15:39:51.012Z,99221.52
2019-04-01T15:41:26.840Z,99222.61
2019-04-01T15:43:01.203Z,99220.34
2019-04-01T15:44:35.508Z,99222.92
2019-04-01T15:46:13.854Z,99223.17
2019-04-01T15:47:48.212Z,99218.22
2019-04-01T15:49:22.511Z,99222.54
2019-04-01T15:50:56.724Z,99220.38
2019-04-01T15:52:30.936Z,99223.04
2019-04-01T15:54:05.461Z,99222.00
2019-04-01T15:55:39.679Z,99224.59
2019-04-01T15:57:15.381Z,99217.52
2019-04-01T15:58:50.998Z,99223.69
2019-04-01T16:00:25.962Z,99215.23
2019-04-01T16:02:00.199Z,99223.70
2019-04-01T16:03:34.443Z,99226.57
2019-04-01T16:05:08.897Z,99228.78
2019-04-01T16:06:43.202Z,99228.70
2019-04-01T16:08:17.470Z,99223.75
2019-04-01T16:09:51.978Z,99230.47
2019-04-01T16:11:26.676Z,99232.48
2019-04-01T16:13:01.277Z,99230.30
2019-04-01T16:14:35.538Z,99235.29
2019-04-01T16:16:09.954Z,99233.48
2019-04-01T16:17:44.290Z,99230.72
2019-04-01T16:19:18.649Z,99232.95
2019-04-01T16:20:55.035Z,99236.06
2019-04-01T16:22:29.501Z,99238.31
2019-04-01T16:24:03.968Z,99234.11
2019-04-01T16:25:38.631Z,99234.83
2019-04-01T16:27:12.879Z,99231.71
2019-04-01T16:28:47.169Z,99234.51
2019-04-01T16:30:21.518Z,99234.98
2019-04-01T16:31:57.730Z,99229.91
2019-04-01T16:33:32.481Z,99236.83
2019-04-01T16:35:08.002Z,99233.08
2019-04-01T16:36:42.238Z,99235.19
2019-04-01T16:38:16.699Z,99235.45
2019-04-01T16:39:50.977Z,99237.70
2019-04-01T16:41:25.208Z,99240.84
2019-04-01T16:42:59.511Z,99243.45
2019-04-01T16:44:34.043Z,99240.13
2019-04-01T16:46:08.341Z,99237.66
2019-04-01T16:47:42.564Z,99237.81
2019-04-01T16:49:16.804Z,99231.61
2019-04-01T16:50:51.479Z,99242.89
2019-04-01T16:52:25.803Z,99246.54
2019-04-01T16:54:00.035Z,99245.25
2019-04-01T16:55:36.144Z,99246.76
2019-04-01T16:57:10.682Z,99247.63
2019-04-01T16:58:44.917Z,99243.14
2019-04-01T17:00:20.025Z,99252.37
2019-04-01T17:01:57.536Z,99257.79
2019-04-01T17:03:30.490Z,99254.25
2019-04-01T17:05:06.086Z,99259.30
2019-04-01T17:06:40.366Z,99258.58
2019-04-01T17:08:15.291Z,99257.88
2019-04-01T17:09:49.786Z,99261.66
2019-04-01T17:11:23.988Z,99263.38
2019-04-01T17:13:01.268Z,99267.40
2019-04-01T17:14:35.489Z,99264.86
2019-04-01T17:16:09.874Z,99270.92
2019-04-01T17:17:44.317Z,99274.69
2019-04-01T17:19:18.520Z,99272.18
2019-04-01T17:20:52.743Z,99277.55
2019-04-01T17:22:27.343Z,99285.37
2019-04-01T17:24:01.646Z,99283.98
2019-04-01T17:25:35.900Z,99286.41
2019-04-01T17:27:13.217Z,99291.36
2019-04-01T17:28:47.738Z,99290.77
2019-04-01T17:30:21.987Z,99292.28
2019-04-01T17:31:56.198Z,99293.91
2019-04-01T17:33:30.414Z,99298.64
2019-04-01T17:35:05.765Z,99302.45
2019-04-01T17:36:40.115Z,99303.02
2019-04-01T17:38:14.378Z,99303.09
2019-04-01T17:39:48.710Z,99298.64
2019-04-01T17:41:23.066Z,99300.22
2019-04-01T17:42:57.305Z,99298.98
2019-04-01T17:44:31.629Z,99303.62
2019-04-01T17:46:06.106Z,99303.88
2019-04-01T17:47:40.624Z,99309.37
2019-04-01T17:49:14.860Z,99306.20
2019-04-01T17:50:49.152Z,99313.02
2019-04-01T17:52:24.414Z,99317.05
2019-04-01T17:54:01.109Z,99318.29
2019-04-01T17:55:35.675Z,99320.30
2019-04-01T17:57:10.037Z,99318.16
2019-04-01T17:58:44.688Z,99322.80
2019-04-01T18:00:23.701Z,99319.39
2019-04-01T18:01:57.956Z,99328.63
2019-04-01T18:03:34.068Z,99322.10
2019-04-01T18:05:11.059Z,99323.80
2019-04-01T18:06:45.720Z,99327.84
2019-04-01T18:08:19.949Z,99329.81
2019-04-01T18:09:54.245Z,99336.28
2019-04-01T18:11:28.505Z,99339.81
2019-04-01T18:13:02.837Z,99342.54
2019-04-01T18:14:37.138Z,99341.03
2019-04-01T18:16:11.371Z,99353.91
2019-04-01T18:17:45.743Z,99352.38
2019-04-01T18:19:20.240Z,99355.78
2019-04-01T18:20:54.496Z,99358.14
2019-04-01T18:22:29.113Z,99364.94
2019-04-01T18:24:03.769Z,99366.39
2019-04-01T18:25:38.240Z,99369.95
2019-04-01T18:27:12.506Z,99367.41
2019-04-01T18:28:46.857Z,99363.94
2019-04-01T18:30:21.445Z,99372.33